createdAt,value
2019-04-04T00:01:09.183Z,14.67
2019-04-04T00:03:38.861Z,14.07
2019-04-04T00:06:08.775Z,13.13
2019-04-04T00:08:38.339Z,14.70
2019-04-04T00:11:07.927Z,13.20
2019-04-04T00:13:37.203Z,13.30
2019-04-04T00:16:06.870Z,14.67
2019-04-04T00:18:36.515Z,15.33
2019-04-04T00:21:05.714Z,14.77
2019-04-04T00:23:37.682Z,14.50
2019-04-04T00:26:08.903Z,14.63
2019-04-04T00:28:39.339Z,15.90
2019-04-04T00:31:09.291Z,13.90
2019-04-04T00:33:39.785Z,15.27
2019-04-04T00:36:09.683Z,13.70
2019-04-04T00:38:39.199Z,13.37
2019-04-04T00:41:09.037Z,11.83
2019-04-04T00:43:38.932Z,12.50
2019-04-04T00:46:08.548Z,13.00
2019-04-04T00:48:38.114Z,13.77
2019-04-04T00:51:08.548Z,14.67
2019-04-04T00:53:38.264Z,13.97
2019-04-04T00:56:29.369Z,12.90
2019-04-04T01:00:00.866Z,16.40
2019-04-04T01:02:36.971Z,14.23
2019-04-04T01:05:39.387Z,13.07
2019-04-04T01:11:08.474Z,14.47
2019-04-04T01:13:37.875Z,15.27
2019-04-04T01:16:07.351Z,14.57
2019-04-04T01:18:37.597Z,14.73
2019-04-04T01:21:07.618Z,15.43
2019-04-04T01:23:36.726Z,15.53
2019-04-04T01:26:07.200Z,15.73
2019-04-04T01:28:37.211Z,17.30
2019-04-04T01:31:08.013Z,15.53
2019-04-04T01:33:37.578Z,16.23
2019-04-04T01:36:07.259Z,17.83
2019-04-04T01:38:36.973Z,16.93
2019-04-04T01:41:06.627Z,17.77
2019-04-04T01:43:35.853Z,17.20
2019-04-04T01:46:07.820Z,16.97
2019-04-04T01:48:37.400Z,16.53
2019-04-04T01:51:07.933Z,18.37
2019-04-04T01:53:37.577Z,19.87
2019-04-04T01:56:07.455Z,19.87
2019-04-04T01:58:40.822Z,18.67
2019-04-04T02:01:08.861Z,18.77
2019-04-04T02:03:38.522Z,18.57
2019-04-04T02:06:08.002Z,19.87
2019-04-04T02:08:37.942Z,19.57
2019-04-04T02:11:07.554Z,18.13
2019-04-04T02:13:40.854Z,18.23
2019-04-04T02:16:10.936Z,18.17
2019-04-04T02:18:40.505Z,21.37
2019-04-04T02:21:10.666Z,18.37
2019-04-04T02:23:40.506Z,20.67
2019-04-04T02:26:10.090Z,18.00
2019-04-04T02:28:40.694Z,19.77
2019-04-04T02:31:10.524Z,21.87
2019-04-04T02:33:40.152Z,21.00
2019-04-04T02:36:09.812Z,23.43
2019-04-04T02:38:39.321Z,20.77
2019-04-04T02:41:08.753Z,22.53
2019-04-04T02:43:38.307Z,22.57
2019-04-04T02:46:11.056Z,21.47
2019-04-04T02:48:40.117Z,22.37
2019-04-04T02:51:09.671Z,22.93
2019-04-04T02:53:39.270Z,26.50
2019-04-04T02:56:08.566Z,23.70
2019-04-04T02:58:37.924Z,26.03
2019-04-04T03:01:07.997Z,24.40
2019-04-04T03:03:41.136Z,24.23
2019-04-04T03:06:08.764Z,24.60
2019-04-04T03:08:38.705Z,25.93
2019-04-04T03:11:08.552Z,27.07
2019-04-04T03:13:38.033Z,24.03
2019-04-04T03:16:07.721Z,24.47
2019-04-04T03:18:38.004Z,24.63
2019-04-04T03:21:07.460Z,25.37
2019-04-04T03:23:37.624Z,26.43
2019-04-04T03:26:07.685Z,27.60
2019-04-04T03:28:36.907Z,28.73
2019-04-04T03:31:06.085Z,29.23
2019-04-04T03:33:35.471Z,33.53
2019-04-04T03:36:04.911Z,28.23
2019-04-04T03:38:34.532Z,28.70
2019-04-04T03:41:06.769Z,27.97
2019-04-04T03:43:36.247Z,32.87
2019-04-04T03:46:05.771Z,26.53
2019-04-04T03:48:35.393Z,25.93
2019-04-04T03:51:05.227Z,29.53
2019-04-04T03:53:35.056Z,26.17
2019-04-04T03:59:00.099Z,24.33
2019-04-04T04:01:28.909Z,27.03
2019-04-04T04:03:58.169Z,28.57
2019-04-04T04:06:27.620Z,27.73
2019-04-04T04:08:57.026Z,22.83
2019-04-04T04:11:26.291Z,23.23
2019-04-04T04:13:56.062Z,23.40
2019-04-04T04:16:25.445Z,30.33
2019-04-04T04:18:55.464Z,25.67
2019-04-04T04:21:25.763Z,30.13
2019-04-04T04:23:56.925Z,28.63
2019-04-04T04:26:26.529Z,35.37
2019-04-04T04:28:56.019Z,26.53
2019-04-04T04:31:25.413Z,33.47
2019-04-04T04:33:54.718Z,35.57
2019-04-04T04:36:24.314Z,35.70
2019-04-04T04:38:58.885Z,28.43
2019-04-04T04:41:24.971Z,29.47
2019-04-04T04:43:54.444Z,36.17
2019-04-04T04:46:23.772Z,32.17
2019-04-04T04:48:53.375Z,34.33
2019-04-04T04:51:22.591Z,30.83
2019-04-04T04:53:51.941Z,32.33
2019-04-04T04:56:21.664Z,28.90
2019-04-04T04:58:50.975Z,31.00
2019-04-04T05:01:20.411Z,28.07
2019-04-04T05:03:50.834Z,29.23
2019-04-04T05:06:20.537Z,36.70
2019-04-04T05:08:49.876Z,32.53
2019-04-04T05:11:20.702Z,34.17
2019-04-04T05:13:52.542Z,28.87
2019-04-04T05:16:22.857Z,29.70
2019-04-04T05:18:55.123Z,29.50
2019-04-04T05:21:27.368Z,28.67
2019-04-04T05:23:56.181Z,36.60
2019-04-04T05:26:25.395Z,36.07
2019-04-04T05:28:56.911Z,37.93
2019-04-04T05:31:25.993Z,37.47
2019-04-04T05:33:55.004Z,37.83
2019-04-04T05:36:24.391Z,35.13
2019-04-04T05:38:54.196Z,34.33
2019-04-04T05:41:27.055Z,35.83
2019-04-04T05:43:54.485Z,32.63
2019-04-04T05:46:24.055Z,30.60
2019-04-04T05:48:53.238Z,35.47
2019-04-04T05:51:22.534Z,30.03
2019-04-04T05:53:51.643Z,39.17
2019-04-04T05:56:24.213Z,33.40
2019-04-04T05:58:54.018Z,34.67
2019-04-04T06:01:23.525Z,35.63
2019-04-04T06:03:53.533Z,34.00
2019-04-04T06:06:23.074Z,29.47
2019-04-04T06:08:52.582Z,31.40
2019-04-04T06:11:22.193Z,32.93
2019-04-04T06:13:51.412Z,31.13
2019-04-04T06:16:20.836Z,28.33
2019-04-04T06:18:50.774Z,30.33
2019-04-04T06:21:20.205Z,29.23
2019-04-04T06:23:50.394Z,26.47
2019-04-04T06:26:19.617Z,27.97
2019-04-04T06:28:49.004Z,26.83
2019-04-04T06:31:18.849Z,26.13
2019-04-04T06:33:47.873Z,26.17
2019-04-04T06:36:18.269Z,30.60
2019-04-04T06:38:49.768Z,28.00
2019-04-04T06:41:19.488Z,27.10
2019-04-04T06:43:49.032Z,27.87
2019-04-04T06:46:21.115Z,29.13
2019-04-04T06:48:49.310Z,29.57
2019-04-04T06:51:19.168Z,29.03
2019-04-04T06:53:48.751Z,30.10
2019-04-04T06:56:19.686Z,30.73
2019-04-04T06:58:48.885Z,29.50
2019-04-04T07:01:20.984Z,30.83
2019-04-04T07:03:49.004Z,28.93
2019-04-04T07:06:18.238Z,30.70
2019-04-04T07:08:47.875Z,29.40
2019-04-04T07:11:21.564Z,28.67
2019-04-04T07:13:49.275Z,27.23
2019-04-04T07:16:18.636Z,27.47
2019-04-04T07:18:50.582Z,27.53
2019-04-04T07:21:20.631Z,26.37
2019-04-04T07:23:50.441Z,30.47
2019-04-04T07:26:19.771Z,29.20
2019-04-04T07:28:51.896Z,27.90
2019-04-04T07:31:23.115Z,28.90
2019-04-04T07:33:52.874Z,26.33
2019-04-04T07:36:21.981Z,28.37
2019-04-04T07:38:51.376Z,26.17
2019-04-04T07:41:20.767Z,28.43
2019-04-04T07:43:51.620Z,27.70
2019-04-04T07:46:21.244Z,30.37
2019-04-04T07:48:52.207Z,28.90
2019-04-04T07:51:21.573Z,26.13
2019-04-04T07:53:51.017Z,25.00
2019-04-04T07:56:20.191Z,26.60
2019-04-04T07:58:49.672Z,23.97
2019-04-04T08:01:18.960Z,22.47
2019-04-04T08:03:48.811Z,19.73
2019-04-04T08:06:17.985Z,20.13
2019-04-04T08:08:47.229Z,20.87
2019-04-04T08:11:16.756Z,21.10
2019-04-04T08:13:46.240Z,18.53
2019-04-04T08:16:15.784Z,19.83
2019-04-04T08:18:45.820Z,20.97
2019-04-04T08:21:15.599Z,17.30
2019-04-04T08:23:45.235Z,17.47
2019-04-04T08:26:14.543Z,17.20
2019-04-04T08:28:43.809Z,18.90
2019-04-04T08:31:13.306Z,17.87
2019-04-04T08:33:42.808Z,16.47
2019-04-04T08:36:15.219Z,14.60
2019-04-04T08:38:44.582Z,15.37
2019-04-04T08:41:13.985Z,14.10
2019-04-04T08:43:43.655Z,18.63
2019-04-04T08:46:15.814Z,17.73
2019-04-04T08:48:45.666Z,15.33
2019-04-04T08:51:14.563Z,13.67
2019-04-04T08:53:45.305Z,17.70
2019-04-04T08:56:15.021Z,13.83
2019-04-04T08:58:44.196Z,16.40
2019-04-04T09:01:13.647Z,12.80
2019-04-04T09:03:46.187Z,13.30
2019-04-04T09:06:15.409Z,13.63
2019-04-04T09:08:44.882Z,11.87
2019-04-04T09:11:14.195Z,12.27
2019-04-04T09:13:43.990Z,12.07
2019-04-04T09:16:13.633Z,10.27
2019-04-04T09:18:43.201Z,10.63
2019-04-04T09:21:15.200Z,12.27
2019-04-04T09:23:44.426Z,11.80
2019-04-04T09:26:14.169Z,10.33
2019-04-04T09:28:43.747Z,10.83
2019-04-04T09:31:13.181Z,11.10
2019-04-04T09:33:42.890Z,11.70
2019-04-04T09:36:14.150Z,12.53
2019-04-04T09:38:43.239Z,11.87
2019-04-04T09:41:13.592Z,12.07
2019-04-04T09:43:43.186Z,11.50
2019-04-04T09:46:12.754Z,11.07
2019-04-04T09:48:44.446Z,11.13
2019-04-04T09:51:14.032Z,11.07
2019-04-04T09:53:52.787Z,10.40
2019-04-04T09:56:14.442Z,11.53
2019-04-04T09:58:43.765Z,11.60
2019-04-04T10:01:13.197Z,11.80
2019-04-04T10:03:43.078Z,12.63
2019-04-04T10:06:13.547Z,14.07
2019-04-04T10:08:44.645Z,21.10
2019-04-04T10:11:16.506Z,16.20
2019-04-04T10:13:45.680Z,15.67
2019-04-04T10:16:18.294Z,14.10
2019-04-04T10:18:47.903Z,13.07
2019-04-04T10:21:17.320Z,11.80
2019-04-04T10:23:46.748Z,12.00
2019-04-04T10:26:16.002Z,13.87
2019-04-04T10:28:45.179Z,13.83
2019-04-04T10:31:18.072Z,12.97
2019-04-04T10:33:47.285Z,13.50
2019-04-04T10:36:16.676Z,15.10
2019-04-04T10:38:45.860Z,14.73
2019-04-04T10:41:15.421Z,13.27
2019-04-04T10:43:45.118Z,15.10
2019-04-04T10:46:14.771Z,14.57
2019-04-04T10:48:44.729Z,13.30
2019-04-04T10:51:17.393Z,13.37
2019-04-04T10:53:46.976Z,14.43
2019-04-04T10:56:16.235Z,14.50
2019-04-04T10:58:45.571Z,12.90
2019-04-04T11:01:14.771Z,14.40
2019-04-04T11:03:43.960Z,14.30
2019-04-04T11:06:13.066Z,15.63
2019-04-04T11:08:42.059Z,13.97
2019-04-04T11:11:11.580Z,13.80
2019-04-04T11:13:40.991Z,14.07
2019-04-04T11:16:10.528Z,13.73
2019-04-04T11:18:39.740Z,13.90
2019-04-04T11:21:09.064Z,14.83
2019-04-04T11:23:38.558Z,13.37
2019-04-04T11:26:07.970Z,14.77
2019-04-04T11:28:37.320Z,23.10
2019-04-04T11:31:06.871Z,15.73
2019-04-04T11:33:35.968Z,15.30
2019-04-04T11:36:05.779Z,17.50
2019-04-04T11:38:35.479Z,29.73
2019-04-04T11:41:04.814Z,32.63
2019-04-04T11:43:33.964Z,17.67
2019-04-04T11:46:03.479Z,15.97
2019-04-04T11:48:32.879Z,19.80
2019-04-04T11:51:02.784Z,16.53
2019-04-04T11:53:32.269Z,16.37
2019-04-04T11:56:01.710Z,17.60
2019-04-04T11:58:31.343Z,16.77
2019-04-04T12:01:02.372Z,21.80
2019-04-04T12:03:31.784Z,20.37
2019-04-04T12:06:01.057Z,16.00
2019-04-04T12:08:30.576Z,17.10
2019-04-04T12:11:00.178Z,17.53
2019-04-04T12:13:30.009Z,16.63
2019-04-04T12:15:59.154Z,18.03
2019-04-04T12:18:29.756Z,18.90
2019-04-04T12:20:59.175Z,18.00
2019-04-04T12:23:28.507Z,17.37
2019-04-04T12:25:58.013Z,17.67
2019-04-04T12:28:27.309Z,16.03
2019-04-04T12:30:56.497Z,17.17
2019-04-04T12:33:26.004Z,18.07
2019-04-04T12:35:55.431Z,15.37
2019-04-04T12:38:27.320Z,17.07
2019-04-04T12:40:56.564Z,18.07
2019-04-04T12:43:26.084Z,17.97
2019-04-04T12:45:55.663Z,17.93
2019-04-04T12:48:25.340Z,17.67
2019-04-04T12:50:54.472Z,19.30
2019-04-04T12:53:24.485Z,18.00
2019-04-04T12:55:54.294Z,16.37
2019-04-04T12:58:25.779Z,17.70
2019-04-04T13:00:55.260Z,24.70
2019-04-04T13:03:24.785Z,20.93
2019-04-04T13:05:54.672Z,22.57
2019-04-04T13:08:24.662Z,22.53
2019-04-04T13:10:54.231Z,21.70
2019-04-04T13:13:26.464Z,19.27
2019-04-04T13:15:55.553Z,20.13
2019-04-04T13:18:24.992Z,23.00
2019-04-04T13:20:54.475Z,22.87
2019-04-04T13:23:24.280Z,20.30
2019-04-04T13:25:53.674Z,22.10
2019-04-04T13:28:23.377Z,23.63
2019-04-04T13:30:54.479Z,23.40
2019-04-04T13:33:24.197Z,23.53
2019-04-04T13:35:53.664Z,22.60
2019-04-04T13:38:23.447Z,24.07
2019-04-04T13:40:55.038Z,22.47
2019-04-04T13:43:24.551Z,23.57
2019-04-04T13:45:53.923Z,22.53
2019-04-04T13:48:24.052Z,24.30
2019-04-04T13:50:54.005Z,23.03
2019-04-04T13:53:25.560Z,25.33
2019-04-04T13:55:54.439Z,24.63
2019-04-04T13:58:23.862Z,25.13
2019-04-04T14:00:53.704Z,24.50
2019-04-04T14:03:23.138Z,24.27
2019-04-04T14:05:55.718Z,22.07
2019-04-04T14:08:25.194Z,24.03
2019-04-04T14:10:58.370Z,24.10
2019-04-04T14:13:26.235Z,25.23
2019-04-04T14:15:55.944Z,25.03
2019-04-04T14:18:39.152Z,53.50
2019-04-04T14:21:03.910Z,23.67
2019-04-04T14:23:29.010Z,26.07
2019-04-04T14:26:00.054Z,38.63
2019-04-04T14:28:29.445Z,29.77
2019-04-04T14:30:59.071Z,29.17
2019-04-04T14:33:28.426Z,29.93
2019-04-04T14:35:57.481Z,39.50
2019-04-04T14:38:26.926Z,30.67
2019-04-04T14:40:55.997Z,30.70
2019-04-04T14:43:25.291Z,29.87
2019-04-04T14:45:54.615Z,26.97
2019-04-04T14:48:24.133Z,28.40
2019-04-04T14:50:53.902Z,28.20
2019-04-04T14:53:24.126Z,31.03
2019-04-04T14:55:54.751Z,29.40
2019-04-04T14:58:24.257Z,30.33
2019-04-04T15:00:54.134Z,30.80
2019-04-04T15:03:24.022Z,33.43
2019-04-04T15:05:53.781Z,33.43
2019-04-04T15:08:26.867Z,33.87
2019-04-04T15:10:56.181Z,36.20
2019-04-04T15:13:25.578Z,35.57
2019-04-04T15:16:31.423Z,36.87
2019-04-04T15:19:00.837Z,34.50
2019-04-04T15:21:30.452Z,35.47
2019-04-04T15:24:00.058Z,36.77
2019-04-04T15:26:29.261Z,33.37
2019-04-04T15:28:58.480Z,36.30
2019-04-04T15:31:29.588Z,34.73
2019-04-04T15:33:58.885Z,35.57
2019-04-04T15:36:28.703Z,48.90
2019-04-04T15:38:58.317Z,47.50
2019-04-04T15:41:36.832Z,41.07
2019-04-04T15:43:59.074Z,37.10
2019-04-04T15:46:28.358Z,39.20
2019-04-04T15:51:41.253Z,35.67
2019-04-04T15:54:10.568Z,37.63
2019-04-04T15:56:40.220Z,39.50
2019-04-04T15:59:09.697Z,37.73
2019-04-04T16:01:39.214Z,38.43
2019-04-04T16:04:08.517Z,43.30
2019-04-04T16:06:38.714Z,37.57
2019-04-04T16:09:08.588Z,40.60
2019-04-04T16:11:48.815Z,38.80
2019-04-04T16:14:09.366Z,49.13
2019-04-04T16:16:38.662Z,46.83
2019-04-04T16:19:08.191Z,41.83
2019-04-04T16:21:37.475Z,40.57
2019-04-04T16:24:07.297Z,42.03
2019-04-04T16:26:37.013Z,42.90
2019-04-04T16:29:06.725Z,45.03
2019-04-04T16:31:35.945Z,48.37
2019-04-04T16:34:05.660Z,46.47
2019-04-04T16:36:35.319Z,47.30
2019-04-04T16:39:07.520Z,46.67
2019-04-04T16:41:36.896Z,51.73
2019-04-04T16:44:06.291Z,46.87
2019-04-04T16:46:35.476Z,51.73
2019-04-04T16:49:07.660Z,44.67
2019-04-04T16:51:36.843Z,47.80
2019-04-04T16:54:06.149Z,44.07
2019-04-04T16:56:38.389Z,47.33
2019-04-04T16:59:07.924Z,49.13
2019-04-04T17:01:37.112Z,52.10
2019-04-04T17:04:06.429Z,48.27
2019-04-04T17:06:35.580Z,47.10
2019-04-04T17:09:06.695Z,52.53
2019-04-04T17:11:35.955Z,50.20
2019-04-04T17:14:06.171Z,52.00
2019-04-04T17:16:35.584Z,59.20
2019-04-04T17:19:08.466Z,52.60
2019-04-04T17:21:37.804Z,49.07
2019-04-04T17:24:07.470Z,52.23
2019-04-04T17:26:36.560Z,51.30
2019-04-04T17:29:06.208Z,52.73
2019-04-04T17:31:38.155Z,50.47
2019-04-04T17:34:07.640Z,49.90
2019-04-04T17:36:37.040Z,50.03
2019-04-04T17:39:07.657Z,53.27
2019-04-04T17:41:37.167Z,46.27
2019-04-04T17:44:06.656Z,49.63
2019-04-04T17:46:36.783Z,48.10
2019-04-04T17:49:06.646Z,44.23
2019-04-04T17:51:36.609Z,46.87
2019-04-04T17:54:06.240Z,47.17
2019-04-04T17:56:36.563Z,43.23
2019-04-04T17:59:06.371Z,45.23
2019-04-04T18:01:36.550Z,42.23
2019-04-04T18:04:05.959Z,44.07
2019-04-04T18:06:35.606Z,42.13
2019-04-04T18:09:08.407Z,43.60
2019-04-04T18:11:37.973Z,40.30
2019-04-04T18:14:07.595Z,41.17
2019-04-04T18:16:36.786Z,41.37
2019-04-04T18:19:06.960Z,40.43
2019-04-04T18:21:36.713Z,37.97
2019-04-04T18:24:08.267Z,40.50
2019-04-04T18:26:37.634Z,41.70
2019-04-04T18:29:07.064Z,39.30
2019-04-04T18:31:36.470Z,45.00
2019-04-04T18:34:08.107Z,39.63
2019-04-04T18:36:38.195Z,42.40
2019-04-04T18:39:08.108Z,40.77
2019-04-04T18:41:38.087Z,43.07
2019-04-04T18:44:07.496Z,41.20
2019-04-04T18:46:36.953Z,39.63
2019-04-04T18:49:06.775Z,42.43
2019-04-04T18:51:37.737Z,38.60
2019-04-04T18:54:10.570Z,40.43
2019-04-04T18:56:39.995Z,38.80
2019-04-04T18:59:10.356Z,37.50
2019-04-04T19:01:40.552Z,39.77
2019-04-04T19:04:10.036Z,35.77
2019-04-04T19:06:39.580Z,38.67
2019-04-04T19:09:15.245Z,36.83
2019-04-04T19:11:42.148Z,34.67
2019-04-04T19:14:11.804Z,36.43
2019-04-04T19:16:41.049Z,33.63
2019-04-04T19:19:10.025Z,34.93
2019-04-04T19:21:39.338Z,36.77
2019-04-04T19:24:08.863Z,32.53
2019-04-04T19:26:38.446Z,37.67
2019-04-04T19:29:07.947Z,37.23
2019-04-04T19:31:37.920Z,33.87
2019-04-04T19:34:07.051Z,38.47
2019-04-04T19:36:36.324Z,33.63
2019-04-04T19:39:08.758Z,36.20
2019-04-04T19:41:38.440Z,35.80
2019-04-04T19:44:08.253Z,38.60
2019-04-04T19:46:38.087Z,36.07
2019-04-04T19:49:07.815Z,33.27
2019-04-04T19:51:40.655Z,35.13
2019-04-04T19:54:09.856Z,40.33
2019-04-04T19:56:40.255Z,39.77
2019-04-04T19:59:10.065Z,37.33
2019-04-04T20:01:42.439Z,37.40
2019-04-04T20:04:11.856Z,36.00
2019-04-04T20:06:41.352Z,38.33
2019-04-04T20:09:10.338Z,39.37
2019-04-04T20:11:39.705Z,40.37
2019-04-04T20:14:09.155Z,34.07
2019-04-04T20:16:38.655Z,36.20
2019-04-04T20:19:07.885Z,39.00
2019-04-04T20:21:37.066Z,42.13
2019-04-04T20:24:06.561Z,42.23
2019-04-04T20:26:36.394Z,49.63
2019-04-04T20:29:06.649Z,44.63
2019-04-04T20:31:36.328Z,41.67
2019-04-04T20:34:06.399Z,40.27
2019-04-04T20:36:38.926Z,41.30
2019-04-04T20:39:08.625Z,47.13
2019-04-04T20:41:37.977Z,39.23
2019-04-04T20:44:08.729Z,43.73
2019-04-04T20:46:38.127Z,39.10
2019-04-04T20:49:07.738Z,41.53
2019-04-04T20:51:36.987Z,39.13
2019-04-04T20:54:06.041Z,39.17
2019-04-04T20:56:35.494Z,39.00
2019-04-04T20:59:05.650Z,43.87
2019-04-04T21:01:35.271Z,46.83
2019-04-04T21:04:06.667Z,40.70
2019-04-04T21:06:36.264Z,42.37
2019-04-04T21:09:07.457Z,44.60
2019-04-04T21:11:37.435Z,42.43
2019-04-04T21:14:06.895Z,41.93
2019-04-04T21:16:36.295Z,43.90
2019-04-04T21:19:05.837Z,42.30
2019-04-04T21:21:35.686Z,44.23
2019-04-04T21:24:05.400Z,43.60
2019-04-04T21:26:34.803Z,42.13
2019-04-04T21:29:06.226Z,44.03
2019-04-04T21:31:38.909Z,40.03
2019-04-04T21:34:08.445Z,37.53
2019-04-04T21:36:37.831Z,38.87
2019-04-04T21:39:07.917Z,39.50
2019-04-04T21:41:37.450Z,38.03
2019-04-04T21:44:09.074Z,34.77
2019-04-04T21:46:38.102Z,32.53
2019-04-04T21:49:07.710Z,33.87
2019-04-04T21:51:37.620Z,30.43
2019-04-04T21:54:07.279Z,35.17
2019-04-04T21:56:36.536Z,34.77
2019-04-04T21:59:05.777Z,33.80
2019-04-04T22:01:35.339Z,33.20
2019-04-04T22:04:04.842Z,32.67
2019-04-04T22:06:34.240Z,35.83
2019-04-04T22:09:05.489Z,36.83
2019-04-04T22:11:34.894Z,37.53
2019-04-04T22:14:04.141Z,34.03
2019-04-04T22:16:33.630Z,35.90
2019-04-04T22:19:03.258Z,37.87
2019-04-04T22:21:32.669Z,39.33
2019-04-04T22:24:01.753Z,36.83
2019-04-04T22:26:31.471Z,40.20
2019-04-04T22:29:02.057Z,37.53
2019-04-04T22:31:34.133Z,41.77
2019-04-04T22:34:03.485Z,42.93
2019-04-04T22:36:33.046Z,40.33
2019-04-04T22:39:02.396Z,39.37
2019-04-04T22:41:34.669Z,39.10
2019-04-04T22:44:04.125Z,38.10
2019-04-04T22:46:33.350Z,43.77
2019-04-04T22:49:02.731Z,48.47
2019-04-04T22:51:32.580Z,46.23
2019-04-04T22:54:05.406Z,42.00
2019-04-04T22:56:34.830Z,43.03
2019-04-04T22:59:04.182Z,44.73
2019-04-04T23:01:33.646Z,40.93
2019-04-04T23:04:03.172Z,41.07
2019-04-04T23:06:32.670Z,41.47
2019-04-04T23:09:05.873Z,40.57
2019-04-04T23:11:35.485Z,42.47
2019-04-04T23:14:04.720Z,41.90
2019-04-04T23:16:35.407Z,45.23
2019-04-04T23:19:04.690Z,45.17
2019-04-04T23:21:34.336Z,42.63
2019-04-04T23:24:04.051Z,44.17
2019-04-04T23:26:33.501Z,44.70
2019-04-04T23:29:02.844Z,44.40
2019-04-04T23:31:35.502Z,44.63
2019-04-04T23:34:06.021Z,43.47
2019-04-04T23:36:35.696Z,45.77
2019-04-04T23:39:06.978Z,47.80
2019-04-04T23:41:36.168Z,42.60
2019-04-04T23:44:06.189Z,44.00
2019-04-04T23:46:36.200Z,42.80
2019-04-04T23:49:05.920Z,50.70
2019-04-04T23:51:34.898Z,47.93
2019-04-04T23:54:04.406Z,48.77
2019-04-04T23:56:33.804Z,46.97
2019-04-04T23:59:03.657Z,49.73
